createdAt,value
2018-07-27T00:01:36.349Z,100734.14
2018-07-27T00:04:04.805Z,100731.20
2018-07-27T00:06:34.285Z,100726.05
2018-07-27T00:09:02.756Z,100728.95
2018-07-27T00:11:31.190Z,100728.14
2018-07-27T00:13:59.643Z,100728.14
2018-07-27T00:16:28.078Z,100725.60
2018-07-27T00:18:56.473Z,100724.75
2018-07-27T00:21:24.881Z,100726.59
2018-07-27T00:23:53.319Z,100724.19
2018-07-27T00:26:21.728Z,100719.17
2018-07-27T00:28:50.120Z,100721.05
2018-07-27T00:31:18.572Z,100716.95
2018-07-27T00:33:47.166Z,100723.25
2018-07-27T00:36:15.589Z,100719.97
2018-07-27T00:38:43.993Z,100720.35
2018-07-27T00:41:12.460Z,100718.41
2018-07-27T00:43:40.828Z,100710.34
2018-07-27T00:46:09.272Z,100715.39
2018-07-27T00:48:37.711Z,100709.91
2018-07-27T00:51:06.176Z,100720.22
2018-07-27T00:53:34.598Z,100717.75
2018-07-27T00:56:02.989Z,100714.87
2018-07-27T00:58:31.423Z,100714.41
2018-07-27T01:00:59.867Z,100711.98
2018-07-27T01:03:28.264Z,100708.45
2018-07-27T01:05:56.768Z,100709.44
2018-07-27T01:08:25.240Z,100709.38
2018-07-27T01:10:53.730Z,100705.98
2018-07-27T01:13:22.212Z,100711.59
2018-07-27T01:15:50.692Z,100709.38
2018-07-27T01:18:19.136Z,100707.03
2018-07-27T01:20:47.728Z,100712.03
2018-07-27T01:23:16.171Z,100712.59
2018-07-27T01:25:44.612Z,100706.06
2018-07-27T01:28:13.054Z,100710.53
2018-07-27T01:30:41.507Z,100712.82
2018-07-27T01:33:10.097Z,100712.30
2018-07-27T01:35:38.499Z,100706.36
2018-07-27T01:38:06.964Z,100712.55
2018-07-27T01:40:35.352Z,100701.72
2018-07-27T01:43:03.782Z,100704.59
2018-07-27T01:45:32.188Z,100705.95
2018-07-27T01:48:00.589Z,100700.31
2018-07-27T01:50:29.045Z,100696.98
2018-07-27T01:52:57.499Z,100698.54
2018-07-27T01:55:25.987Z,100691.97
2018-07-27T01:57:54.442Z,100697.19
2018-07-27T02:00:22.902Z,100699.86
2018-07-27T02:02:51.278Z,100694.83
2018-07-27T02:05:19.691Z,100693.59
2018-07-27T02:07:48.086Z,100687.64
2018-07-27T02:10:16.536Z,100690.86
2018-07-27T02:12:44.979Z,100686.62
2018-07-27T02:15:13.385Z,100686.80
2018-07-27T02:17:41.771Z,100687.75
2018-07-27T02:20:10.141Z,100676.43
2018-07-27T02:22:38.556Z,100680.98
2018-07-27T02:25:06.989Z,100673.28
2018-07-27T02:27:35.427Z,100673.73
2018-07-27T02:30:03.917Z,100669.82
2018-07-27T02:32:32.322Z,100668.19
2018-07-27T02:35:00.727Z,100667.66
2018-07-27T02:37:29.078Z,100668.19
2018-07-27T02:39:57.506Z,100666.94
2018-07-27T02:42:25.940Z,100664.78
2018-07-27T02:44:54.347Z,100669.09
2018-07-27T02:47:22.828Z,100665.97
2018-07-27T02:49:51.254Z,100662.12
2018-07-27T02:52:19.676Z,100661.06
2018-07-27T02:54:48.149Z,100667.73
2018-07-27T02:57:16.560Z,100664.78
2018-07-27T02:59:45.181Z,100661.72
2018-07-27T03:02:13.601Z,100668.13
2018-07-27T03:04:42.028Z,100667.15
2018-07-27T03:07:10.451Z,100664.54
2018-07-27T03:09:38.922Z,100665.45
2018-07-27T03:12:07.429Z,100664.54
2018-07-27T03:14:35.851Z,100666.36
2018-07-27T03:17:04.308Z,100666.36
2018-07-27T03:19:32.729Z,100672.24
2018-07-27T03:22:01.446Z,100662.23
2018-07-27T03:24:29.849Z,100667.39
2018-07-27T03:26:58.271Z,100670.48
2018-07-27T03:29:26.769Z,100657.44
2018-07-27T03:31:55.294Z,100665.84
2018-07-27T03:34:23.680Z,100659.33
2018-07-27T03:36:52.093Z,100659.78
2018-07-27T03:39:20.465Z,100656.38
2018-07-27T03:41:48.871Z,100662.17
2018-07-27T03:44:17.277Z,100654.08
2018-07-27T03:46:45.677Z,100658.97
2018-07-27T03:49:14.096Z,100662.91
2018-07-27T03:51:42.523Z,100660.36
2018-07-27T03:54:11.650Z,100656.05
2018-07-27T03:56:40.012Z,100647.95
2018-07-27T03:59:09.192Z,100654.87
2018-07-27T04:01:37.544Z,100649.71
2018-07-27T04:04:06.044Z,100652.32
2018-07-27T04:06:34.455Z,100656.23
2018-07-27T04:09:03.013Z,100655.96
2018-07-27T04:11:31.419Z,100656.02
2018-07-27T04:13:59.842Z,100657.41
2018-07-27T04:16:28.302Z,100656.98
2018-07-27T04:18:56.703Z,100658.69
2018-07-27T04:21:25.103Z,100663.00
2018-07-27T04:23:53.456Z,100665.61
2018-07-27T04:26:22.974Z,100665.09
2018-07-27T04:28:51.420Z,100664.57
2018-07-27T04:31:19.802Z,100667.97
2018-07-27T04:33:48.213Z,100668.61
2018-07-27T04:36:16.676Z,100675.73
2018-07-27T04:38:45.145Z,100674.15
2018-07-27T04:41:13.540Z,100677.66
2018-07-27T04:43:41.932Z,100671.59
2018-07-27T04:46:10.532Z,100675.05
2018-07-27T04:48:39.074Z,100672.51
2018-07-27T04:51:07.490Z,100669.45
2018-07-27T04:53:35.976Z,100670.23
2018-07-27T04:56:05.257Z,100676.36
2018-07-27T04:58:33.681Z,100674.15
2018-07-27T05:01:02.177Z,100672.84
2018-07-27T05:03:30.673Z,100672.05
2018-07-27T05:05:59.056Z,100675.84
2018-07-27T05:08:27.468Z,100683.94
2018-07-27T05:10:55.871Z,100684.77
2018-07-27T05:13:24.358Z,100678.73
2018-07-27T05:15:52.872Z,100685.67
2018-07-27T05:18:21.260Z,100686.07
2018-07-27T05:20:50.061Z,100684.77
2018-07-27T05:23:19.105Z,100686.09
2018-07-27T05:25:47.554Z,100679.64
2018-07-27T05:28:15.961Z,100677.85
2018-07-27T05:30:44.401Z,100686.98
2018-07-27T05:33:12.808Z,100686.22
2018-07-27T05:35:41.208Z,100684.86
2018-07-27T05:38:09.660Z,100677.85
2018-07-27T05:40:38.099Z,100676.48
2018-07-27T05:43:06.634Z,100685.10
2018-07-27T05:45:35.560Z,100680.22
2018-07-27T05:48:04.052Z,100673.58
2018-07-27T05:50:32.508Z,100676.86
2018-07-27T05:53:00.950Z,100674.55
2018-07-27T05:55:29.383Z,100672.28
2018-07-27T05:57:57.859Z,100675.22
2018-07-27T06:00:26.279Z,100673.41
2018-07-27T06:02:54.741Z,100672.82
2018-07-27T06:05:23.171Z,100679.22
2018-07-27T06:07:51.567Z,100678.67
2018-07-27T06:10:20.153Z,100670.36
2018-07-27T06:12:48.609Z,100675.85
2018-07-27T06:15:17.101Z,100674.87
2018-07-27T06:17:45.720Z,100672.59
2018-07-27T06:20:14.181Z,100672.90
2018-07-27T06:22:42.705Z,100671.47
2018-07-27T06:25:11.112Z,100677.86
2018-07-27T06:27:39.598Z,100676.83
2018-07-27T06:30:08.090Z,100671.87
2018-07-27T06:32:37.235Z,100674.42
2018-07-27T06:35:05.762Z,100667.34
2018-07-27T06:37:34.212Z,100665.58
2018-07-27T06:40:02.739Z,100669.82
2018-07-27T06:42:31.219Z,100667.08
2018-07-27T06:44:59.612Z,100669.56
2018-07-27T06:47:28.068Z,100668.03
2018-07-27T06:49:56.484Z,100670.45
2018-07-27T06:52:24.880Z,100665.02
2018-07-27T06:54:53.713Z,100669.59
2018-07-27T06:57:22.147Z,100669.49
2018-07-27T06:59:50.652Z,100671.91
2018-07-27T07:02:19.076Z,100674.31
2018-07-27T07:04:47.752Z,100670.52
2018-07-27T07:07:16.196Z,100663.64
2018-07-27T07:09:44.654Z,100662.20
2018-07-27T07:12:13.143Z,100664.72
2018-07-27T07:14:41.608Z,100661.96
2018-07-27T07:17:10.082Z,100660.91
2018-07-27T07:19:38.511Z,100657.17
2018-07-27T07:22:06.973Z,100657.87
2018-07-27T07:24:35.523Z,100659.39
2018-07-27T07:27:04.012Z,100657.34
2018-07-27T07:29:32.451Z,100659.33
2018-07-27T07:32:00.892Z,100655.97
2018-07-27T07:34:29.307Z,100652.43
2018-07-27T07:36:57.865Z,100654.52
2018-07-27T07:39:26.320Z,100645.53
2018-07-27T07:41:54.800Z,100649.66
2018-07-27T07:44:24.056Z,100649.86
2018-07-27T07:46:52.502Z,100647.88
2018-07-27T07:49:21.003Z,100647.41
2018-07-27T07:51:49.393Z,100650.55
2018-07-27T07:54:17.792Z,100645.94
2018-07-27T07:56:46.196Z,100644.83
2018-07-27T07:59:14.607Z,100643.52
2018-07-27T08:01:43.340Z,100640.29
2018-07-27T08:04:11.748Z,100640.84
2018-07-27T08:06:40.169Z,100634.34
2018-07-27T08:09:09.521Z,100627.39
2018-07-27T08:11:37.956Z,100627.56
2018-07-27T08:14:09.185Z,100620.96
2018-07-27T08:16:37.588Z,100626.65
2018-07-27T08:19:06.121Z,100617.64
2018-07-27T08:21:34.623Z,100620.24
2018-07-27T08:24:03.129Z,100619.86
2018-07-27T08:26:38.971Z,100611.23
2018-07-27T08:29:08.816Z,100611.93
2018-07-27T08:31:37.287Z,100608.79
2018-07-27T08:34:06.110Z,100611.10
2018-07-27T08:36:35.045Z,100612.78
2018-07-27T08:39:05.995Z,100609.06
2018-07-27T08:41:34.869Z,100608.14
2018-07-27T08:44:03.472Z,100602.98
2018-07-27T08:46:31.891Z,100604.72
2018-07-27T08:49:00.427Z,100602.55
2018-07-27T08:51:28.879Z,100603.36
2018-07-27T08:53:57.401Z,100602.11
2018-07-27T08:56:26.665Z,100601.69
2018-07-27T08:58:55.476Z,100595.55
2018-07-27T09:01:24.700Z,100587.69
2018-07-27T09:03:54.666Z,100546.73
2018-07-27T09:06:23.170Z,100589.08
2018-07-27T09:08:51.967Z,100586.62
2018-07-27T09:11:20.844Z,100583.30
2018-07-27T09:13:49.877Z,100587.15
2018-07-27T09:16:18.361Z,100592.63
2018-07-27T09:18:46.901Z,100590.01
2018-07-27T09:21:15.289Z,100588.23
2018-07-27T09:23:43.731Z,100583.23
2018-07-27T09:26:12.188Z,100581.95
2018-07-27T09:28:40.620Z,100580.47
2018-07-27T09:31:09.071Z,100581.17
2018-07-27T09:33:37.525Z,100582.10
2018-07-27T09:36:06.056Z,100575.55
2018-07-27T09:38:34.521Z,100574.91
2018-07-27T09:41:02.947Z,100572.92
2018-07-27T09:43:31.369Z,100564.48
2018-07-27T09:45:59.795Z,100569.39
2018-07-27T09:48:28.293Z,100571.88
2018-07-27T09:50:56.692Z,100574.09
2018-07-27T09:53:25.119Z,100564.13
2018-07-27T09:55:53.576Z,100561.88
2018-07-27T09:58:22.008Z,100558.33
2018-07-27T10:00:55.607Z,100559.36
2018-07-27T10:03:24.048Z,100563.20
2018-07-27T10:05:52.531Z,100564.47
2018-07-27T10:08:20.935Z,100552.59
2018-07-27T10:10:49.377Z,100552.21
2018-07-27T10:13:17.853Z,100551.78
2018-07-27T10:15:46.248Z,100549.42
2018-07-27T10:18:14.680Z,100550.38
2018-07-27T10:20:43.111Z,100548.30
2018-07-27T10:23:11.542Z,100546.39
2018-07-27T10:25:39.996Z,100540.20
2018-07-27T10:28:08.432Z,100535.80
2018-07-27T10:30:36.916Z,100537.39
2018-07-27T10:33:05.480Z,100533.94
2018-07-27T10:35:33.871Z,100539.52
2018-07-27T10:38:02.303Z,100533.30
2018-07-27T10:40:30.714Z,100539.01
2018-07-27T10:42:59.108Z,100528.96
2018-07-27T10:45:27.535Z,100521.47
2018-07-27T10:47:55.891Z,100524.00
2018-07-27T10:50:24.343Z,100517.99
2018-07-27T10:52:52.732Z,100518.59
2018-07-27T10:55:21.242Z,100517.80
2018-07-27T10:57:49.629Z,100514.13
2018-07-27T11:00:18.089Z,100517.99
2018-07-27T11:02:46.482Z,100515.55
2018-07-27T11:05:15.232Z,100516.46
2018-07-27T11:07:43.784Z,100513.76
2018-07-27T11:10:12.680Z,100506.53
2018-07-27T11:12:41.150Z,100506.91
2018-07-27T11:15:10.492Z,100504.91
2018-07-27T11:17:39.514Z,100495.70
2018-07-27T11:20:08.862Z,100485.38
2018-07-27T11:22:37.248Z,100483.72
2018-07-27T11:25:05.905Z,100493.31
2018-07-27T11:27:34.376Z,100485.84
2018-07-27T11:30:02.898Z,100477.56
2018-07-27T11:32:31.285Z,100476.52
2018-07-27T11:34:59.675Z,100477.36
2018-07-27T11:37:28.196Z,100469.31
2018-07-27T11:39:56.543Z,100461.14
2018-07-27T11:42:25.812Z,100462.14
2018-07-27T11:44:54.289Z,100456.30
2018-07-27T11:47:22.771Z,100452.25
2018-07-27T11:49:51.344Z,100442.10
2018-07-27T11:52:19.814Z,100446.27
2018-07-27T11:54:48.243Z,100443.02
2018-07-27T11:57:16.693Z,100448.39
2018-07-27T11:59:45.106Z,100449.18
2018-07-27T12:02:13.539Z,100443.33
2018-07-27T12:04:41.974Z,100446.16
2018-07-27T12:07:10.417Z,100434.84
2018-07-27T12:09:38.861Z,100435.55
2018-07-27T12:12:07.491Z,100430.13
2018-07-27T12:14:36.304Z,100425.00
2018-07-27T12:17:04.526Z,100423.86
2018-07-27T12:19:32.924Z,100423.84
2018-07-27T12:22:01.499Z,100420.73
2018-07-27T12:24:29.996Z,100420.74
2018-07-27T12:26:58.409Z,100414.16
2018-07-27T12:29:26.858Z,100403.60
2018-07-27T12:31:55.281Z,100405.58
2018-07-27T12:34:23.736Z,100398.09
2018-07-27T12:36:52.166Z,100397.42
2018-07-27T12:39:20.591Z,100393.28
2018-07-27T12:41:49.029Z,100392.92
2018-07-27T12:44:17.396Z,100395.91
2018-07-27T12:46:45.994Z,100400.59
2018-07-27T12:49:14.401Z,100390.84
2018-07-27T12:51:43.164Z,100387.30
2018-07-27T12:54:11.568Z,100380.45
2018-07-27T12:56:40.013Z,100362.02
2018-07-27T12:59:08.476Z,100365.16
2018-07-27T13:01:36.944Z,100368.92
2018-07-27T13:04:05.384Z,100364.53
2018-07-27T13:06:33.818Z,100363.84
2018-07-27T13:09:02.273Z,100364.16
2018-07-27T13:11:30.838Z,100358.83
2018-07-27T13:13:59.253Z,100357.06
2018-07-27T13:16:27.637Z,100354.84
2018-07-27T13:18:56.080Z,100347.02
2018-07-27T13:21:24.513Z,100346.78
2018-07-27T13:23:59.348Z,100347.27
2018-07-27T13:26:27.767Z,100345.25
2018-07-27T13:28:56.205Z,100341.66
2018-07-27T13:32:01.760Z,100338.73
2018-07-27T13:34:33.410Z,100331.93
2018-07-27T13:37:02.481Z,100328.02
2018-07-27T13:39:31.272Z,100329.10
2018-07-27T13:42:00.836Z,100324.72
2018-07-27T13:44:29.951Z,100317.14
2018-07-27T13:46:58.436Z,100314.67
2018-07-27T13:49:27.453Z,100315.55
2018-07-27T13:51:55.981Z,100314.22
2018-07-27T13:54:24.649Z,100317.30
2018-07-27T13:56:53.125Z,100309.62
2018-07-27T13:59:21.534Z,100314.38
2018-07-27T14:01:50.368Z,100307.73
2018-07-27T14:04:18.843Z,100306.77
2018-07-27T14:06:48.884Z,100306.05
2018-07-27T14:09:17.353Z,100303.62
2018-07-27T14:11:45.803Z,100300.97
2018-07-27T14:14:14.372Z,100297.09
2018-07-27T14:16:43.163Z,100285.50
2018-07-27T14:19:12.714Z,100281.72
2018-07-27T14:21:41.297Z,100281.37
2018-07-27T14:24:09.651Z,100283.69
2018-07-27T14:26:38.255Z,100276.05
2018-07-27T14:29:06.775Z,100270.27
2018-07-27T14:31:36.001Z,100267.48
2018-07-27T14:34:04.473Z,100269.41
2018-07-27T14:36:33.063Z,100266.81
2018-07-27T14:39:01.452Z,100265.98
2018-07-27T14:41:29.901Z,100261.25
2018-07-27T14:43:58.335Z,100257.45
2018-07-27T14:46:26.715Z,100262.12
2018-07-27T14:48:55.131Z,100255.48
2018-07-27T14:51:23.542Z,100251.24
2018-07-27T14:53:51.998Z,100253.98
2018-07-27T14:56:20.407Z,100244.11
2018-07-27T14:58:48.828Z,100241.80
2018-07-27T15:01:17.254Z,100231.75
2018-07-27T15:03:45.696Z,100231.73
2018-07-27T15:06:14.167Z,100235.89
2018-07-27T15:08:42.627Z,100231.14
2018-07-27T15:11:11.697Z,100232.62
2018-07-27T15:13:40.153Z,100213.13
2018-07-27T15:16:08.885Z,100221.23
2018-07-27T15:18:37.282Z,100221.23
2018-07-27T15:21:05.789Z,100218.15
2018-07-27T15:23:34.248Z,100219.63
2018-07-27T15:26:02.661Z,100219.76
2018-07-27T15:28:31.040Z,100221.64
2018-07-27T15:30:59.493Z,100220.76
2018-07-27T15:33:27.891Z,100213.13
2018-07-27T15:35:56.413Z,100212.44
2018-07-27T15:38:24.964Z,100205.45
2018-07-27T15:40:53.426Z,100206.83
2018-07-27T15:43:21.925Z,100201.94
2018-07-27T15:45:50.420Z,100200.78
2018-07-27T15:48:18.880Z,100196.41
2018-07-27T15:50:47.465Z,100197.88
2018-07-27T15:53:15.943Z,100192.76
2018-07-27T15:55:44.389Z,100197.66
2018-07-27T15:58:13.305Z,100197.19
2018-07-27T16:00:41.720Z,100189.52
2018-07-27T16:03:10.131Z,100195.41
2018-07-27T16:05:38.836Z,100188.70
2018-07-27T16:08:07.457Z,100180.38
2018-07-27T16:10:35.888Z,100179.35
2018-07-27T16:13:04.984Z,100173.14
2018-07-27T16:15:33.385Z,100169.76
2018-07-27T16:18:01.792Z,100173.48
2018-07-27T16:20:30.256Z,100161.28
2018-07-27T16:22:58.740Z,100163.18
2018-07-27T16:25:27.194Z,100156.03
2018-07-27T16:27:55.583Z,100162.04
2018-07-27T16:30:24.040Z,100157.25
2018-07-27T16:32:52.489Z,100158.61
2018-07-27T16:35:21.000Z,100161.95
2018-07-27T16:37:49.386Z,100155.30
2018-07-27T16:40:17.833Z,100158.46
2018-07-27T16:42:46.252Z,100157.05
2018-07-27T16:45:14.681Z,100151.66
2018-07-27T16:47:43.140Z,100156.09
2018-07-27T16:50:12.335Z,100154.48
2018-07-27T16:52:40.783Z,100152.13
2018-07-27T16:55:09.264Z,100150.98
2018-07-27T16:57:37.749Z,100148.23
2018-07-27T17:00:07.077Z,100149.93
2018-07-27T17:02:35.486Z,100151.27
2018-07-27T17:05:03.980Z,100144.12
2018-07-27T17:07:32.486Z,100140.19
2018-07-27T17:10:00.855Z,100142.33
2018-07-27T17:12:29.315Z,100138.42
2018-07-27T17:14:57.763Z,100147.75
2018-07-27T17:17:26.908Z,100135.81
2018-07-27T17:19:55.288Z,100146.41
2018-07-27T17:22:23.800Z,100140.94
2018-07-27T17:24:52.225Z,100143.67
2018-07-27T17:27:20.640Z,100141.73
2018-07-27T17:29:49.043Z,100143.06
2018-07-27T17:32:17.453Z,100138.09
2018-07-27T17:34:45.846Z,100135.44
2018-07-27T17:37:14.260Z,100133.26
2018-07-27T17:39:42.711Z,100133.02
2018-07-27T17:42:11.120Z,100133.43
2018-07-27T17:44:39.532Z,100126.30
2018-07-27T17:47:07.977Z,100125.52
2018-07-27T17:49:36.400Z,100126.30
2018-07-27T17:52:04.815Z,100123.62
2018-07-27T17:54:33.245Z,100125.09
2018-07-27T17:57:01.685Z,100121.50
2018-07-27T17:59:30.063Z,100114.52
2018-07-27T18:01:58.479Z,100117.90
2018-07-27T18:04:26.888Z,100108.77
2018-07-27T18:06:55.428Z,100116.19
2018-07-27T18:09:23.835Z,100111.67
2018-07-27T18:11:52.272Z,100108.97
2018-07-27T18:14:20.754Z,100109.69
2018-07-27T18:16:49.184Z,100114.09
2018-07-27T18:19:17.627Z,100110.72
2018-07-27T18:21:46.052Z,100107.55
2018-07-27T18:24:14.489Z,100109.52
2018-07-27T18:26:42.916Z,100099.47
2018-07-27T18:29:11.289Z,100105.44
2018-07-27T18:31:39.809Z,100111.45
2018-07-27T18:34:08.256Z,100108.49
2018-07-27T18:36:37.061Z,100113.37
2018-07-27T18:39:07.872Z,100110.29
2018-07-27T18:41:36.423Z,100106.62
2018-07-27T18:44:04.918Z,100112.14
2018-07-27T18:46:33.319Z,100112.21
2018-07-27T18:49:01.731Z,100113.06
2018-07-27T18:51:30.154Z,100110.42
2018-07-27T18:53:58.612Z,100120.30
2018-07-27T18:56:27.088Z,100116.55
2018-07-27T18:58:55.547Z,100123.79
2018-07-27T19:01:23.934Z,100116.13
2018-07-27T19:03:52.336Z,100118.68
2018-07-27T19:06:20.805Z,100113.80
2018-07-27T19:08:49.218Z,100109.80
2018-07-27T19:11:17.650Z,100108.75
2018-07-27T19:13:46.072Z,100110.00
2018-07-27T19:16:14.480Z,100112.07
2018-07-27T19:18:42.971Z,100113.08
2018-07-27T19:21:11.419Z,100112.02
2018-07-27T19:23:39.902Z,100114.56
2018-07-27T19:26:08.287Z,100109.44
2018-07-27T19:28:36.698Z,100114.02
2018-07-27T19:31:05.215Z,100105.28
2018-07-27T19:33:33.663Z,100106.70
2018-07-27T19:36:02.121Z,100106.59
2018-07-27T19:38:30.532Z,100106.14
2018-07-27T19:40:58.996Z,100107.10
2018-07-27T19:43:27.441Z,100100.04
2018-07-27T19:45:55.862Z,100103.67
2018-07-27T19:48:24.348Z,100108.94
2018-07-27T19:50:52.782Z,100108.73
2018-07-27T19:53:21.240Z,100103.55
2018-07-27T19:55:49.641Z,100111.24
2018-07-27T19:58:18.015Z,100109.10
2018-07-27T20:00:46.498Z,100120.96
2018-07-27T20:03:14.955Z,100120.48
2018-07-27T20:05:43.372Z,100130.66
2018-07-27T20:08:11.858Z,100125.35
2018-07-27T20:10:40.416Z,100122.72
2018-07-27T20:13:08.874Z,100124.57
2018-07-27T20:15:37.368Z,100125.52
2018-07-27T20:18:05.886Z,100128.73
2018-07-27T20:20:34.340Z,100130.51
2018-07-27T20:23:02.704Z,100133.81
2018-07-27T20:25:31.142Z,100126.58
2018-07-27T20:27:59.533Z,100128.27
2018-07-27T20:30:27.928Z,100127.11
2018-07-27T20:32:56.327Z,100127.78
2018-07-27T20:35:24.760Z,100123.81
2018-07-27T20:37:53.306Z,100126.81
2018-07-27T20:40:21.757Z,100128.72
2018-07-27T20:42:50.216Z,100126.80
2018-07-27T20:45:18.715Z,100130.02
2018-07-27T20:47:47.150Z,100128.06
2018-07-27T20:50:15.559Z,100127.56
2018-07-27T20:52:44.589Z,100125.52
2018-07-27T20:55:13.048Z,100123.34
2018-07-27T20:57:41.920Z,100121.77
2018-07-27T21:00:13.369Z,100124.35
2018-07-27T21:02:43.376Z,100125.89
2018-07-27T21:05:12.724Z,100126.71
2018-07-27T21:07:41.771Z,100124.49
2018-07-27T21:10:10.686Z,100125.02
2018-07-27T21:12:39.453Z,100121.77
2018-07-27T21:15:07.951Z,100118.96
2018-07-27T21:17:36.533Z,100114.84
2018-07-27T21:20:05.725Z,100117.63
2018-07-27T21:22:34.194Z,100113.72
2018-07-27T21:25:02.706Z,100115.14
2018-07-27T21:27:31.204Z,100119.59
2018-07-27T21:29:59.632Z,100124.92
2018-07-27T21:32:28.059Z,100126.06
2018-07-27T21:34:56.488Z,100124.48
2018-07-27T21:37:24.880Z,100123.17
2018-07-27T21:39:53.340Z,100117.20
2018-07-27T21:42:21.740Z,100117.81
2018-07-27T21:44:50.213Z,100120.77
2018-07-27T21:47:18.641Z,100121.92
2018-07-27T21:49:47.229Z,100126.34
2018-07-27T21:52:15.630Z,100120.42
2018-07-27T21:54:44.008Z,100116.95
2018-07-27T21:57:12.521Z,100114.32
2018-07-27T21:59:41.008Z,100111.69
2018-07-27T22:02:09.515Z,100112.27
2018-07-27T22:04:37.940Z,100105.41
2018-07-27T22:07:06.420Z,100101.31
2018-07-27T22:09:34.821Z,100098.55
2018-07-27T22:12:03.252Z,100101.95
2018-07-27T22:14:31.681Z,100101.19
2018-07-27T22:17:00.082Z,100093.84
2018-07-27T22:19:28.521Z,100086.21
2018-07-27T22:21:56.906Z,100085.04
2018-07-27T22:24:25.312Z,100090.19
2018-07-27T22:26:53.736Z,100085.88
2018-07-27T22:29:22.161Z,100088.41
2018-07-27T22:31:50.579Z,100081.57
2018-07-27T22:34:19.033Z,100085.04
2018-07-27T22:36:47.469Z,100081.94
2018-07-27T22:39:15.889Z,100080.98
2018-07-27T22:41:44.272Z,100085.15
2018-07-27T22:44:12.782Z,100079.53
2018-07-27T22:46:41.196Z,100082.38
2018-07-27T22:49:09.655Z,100083.80
2018-07-27T22:51:38.158Z,100086.90
2018-07-27T22:54:06.754Z,100081.83
2018-07-27T22:56:35.371Z,100082.48
2018-07-27T22:59:03.832Z,100071.70
2018-07-27T23:01:32.263Z,100074.55
2018-07-27T23:04:00.660Z,100071.56
2018-07-27T23:06:29.072Z,100076.45
2018-07-27T23:08:57.528Z,100074.19
2018-07-27T23:11:25.972Z,100073.24
2018-07-27T23:13:54.898Z,100062.36
2018-07-27T23:16:23.317Z,100071.67
2018-07-27T23:18:51.729Z,100077.98
2018-07-27T23:21:20.121Z,100068.38
2018-07-27T23:23:48.490Z,100063.13
2018-07-27T23:26:16.916Z,100067.17
2018-07-27T23:28:45.363Z,100070.65
2018-07-27T23:31:13.752Z,100069.55
2018-07-27T23:33:42.160Z,100064.88
2018-07-27T23:36:10.564Z,100061.98
2018-07-27T23:38:38.968Z,100058.63
2018-07-27T23:41:07.447Z,100057.56
2018-07-27T23:43:35.903Z,100056.62
2018-07-27T23:46:04.362Z,100053.73
2018-07-27T23:48:32.768Z,100051.69
2018-07-27T23:51:01.244Z,100045.59
2018-07-27T23:53:29.659Z,100041.28
2018-07-27T23:55:58.130Z,100038.28
2018-07-27T23:58:26.581Z,100038.39
